Jeppesen Weather report generated on Fri May 25 22:07:01 UTC 2018

TAF METAR Weather Report For FQBR FQCH FQTT FQVL FQ
ICAOREPORT DATA
FQBR
TAF_FC
TAF FQBR 251600Z 2518/2624 06008KT 9999
         SCT020 BECMG 2600/2602 VRB03KT
         BKN020 BECMG 2606/2608 19006KT
         BECMG 2612/2614 12010KT
         TN21/2603Z TX29/2613Z=
FQBR
METAR
FQBR 252200Z /////KT CAVOK 23/21 Q1016=
FQCH
TAF_FC
TAF FQCH 251600Z 2518/2618 09008KT 9999
         SCT020 BECMG 2607/2609 17010KT
         BKN015 BECMG 2612/2614 11010KT
         TN15/2603Z TX28/2613Z=
FQCH
METAR
FQCH 252200Z 13004KT CAVOK 17/16 Q1022=
FQTT
TAF_FC
TAF FQTT 251600Z 2518/2618 VRB03KT 9999
         BKN020 BECMG 2608/2610 10008KT
         SCT020 BECMG 2612/2614 16010KT
         TN22/2603Z TX32/2613Z=
FQTT
METAR
NONE
FQVL
TAF_FC
TAF FQVL 251600Z 2518/2618 03008KT 9999
         FEW020 BECMG 2600/2602 VRB03KT
         BECMG 2606/2608 17010KT SCT020
         BECMG 2612/2614 10010KT
         TN19/2603Z TX28/2613Z=
FQVL
METAR
METAR FQVL 251600Z 07004KT 020V100 9999 FEW020 25/21 Q1016=